createdAt,value
2019-03-04T00:01:39.935Z,49.20
2019-03-04T00:04:11.220Z,49.10
2019-03-04T00:06:42.536Z,49.10
2019-03-04T00:09:13.964Z,49.20
2019-03-04T00:11:45.374Z,49.20
2019-03-04T00:14:16.792Z,49.10
2019-03-04T00:16:48.085Z,49.00
2019-03-04T00:19:19.367Z,49.10
2019-03-04T00:21:51.471Z,49.10
2019-03-04T00:24:22.801Z,49.10
2019-03-04T00:26:54.127Z,49.00
2019-03-04T00:29:25.490Z,49.10
2019-03-04T00:31:56.817Z,49.10
2019-03-04T00:34:28.077Z,49.10
2019-03-04T00:36:59.408Z,49.00
2019-03-04T00:39:30.694Z,49.10
2019-03-04T00:42:01.981Z,49.10
2019-03-04T00:44:33.311Z,49.00
2019-03-04T00:47:04.768Z,49.00
2019-03-04T00:49:35.964Z,49.10
2019-03-04T00:52:07.355Z,49.10
2019-03-04T00:54:38.691Z,49.10
2019-03-04T00:57:12.342Z,49.20
2019-03-04T00:59:43.682Z,49.20
2019-03-04T01:02:15.012Z,49.20
2019-03-04T01:04:46.285Z,49.10
2019-03-04T01:07:17.705Z,49.20
2019-03-04T01:09:49.099Z,49.10
2019-03-04T01:12:20.496Z,49.10
2019-03-04T01:14:51.689Z,49.10
2019-03-04T01:17:23.173Z,49.10
2019-03-04T01:19:54.500Z,49.10
2019-03-04T01:22:25.899Z,49.00
2019-03-04T01:24:57.157Z,48.90
2019-03-04T01:27:28.584Z,48.90
2019-03-04T01:29:59.771Z,49.00
2019-03-04T01:32:31.134Z,49.00
2019-03-04T01:35:02.389Z,48.90
2019-03-04T01:37:33.793Z,49.00
2019-03-04T01:40:05.477Z,49.00
2019-03-04T01:42:36.806Z,49.20
2019-03-04T01:45:08.862Z,49.00
2019-03-04T01:47:40.286Z,49.00
2019-03-04T01:50:14.457Z,49.00
2019-03-04T01:52:46.240Z,49.00
2019-03-04T01:55:18.033Z,49.00
2019-03-04T01:57:49.440Z,49.10
2019-03-04T02:00:20.872Z,49.10
2019-03-04T02:02:52.243Z,49.10
2019-03-04T02:05:24.648Z,49.20
2019-03-04T02:07:55.938Z,49.20
2019-03-04T02:10:27.268Z,49.20
2019-03-04T02:12:59.630Z,49.30
2019-03-04T02:15:31.061Z,49.40
2019-03-04T02:18:02.461Z,49.40
2019-03-04T02:20:33.804Z,49.40
2019-03-04T02:23:06.077Z,49.50
2019-03-04T02:26:05.725Z,49.50
2019-03-04T02:28:37.149Z,49.60
2019-03-04T02:31:08.514Z,49.60
2019-03-04T02:33:39.789Z,49.70
2019-03-04T02:36:11.158Z,49.80
2019-03-04T02:38:42.514Z,49.80
2019-03-04T02:41:13.859Z,50.00
2019-03-04T02:43:45.176Z,49.90
2019-03-04T02:46:16.454Z,49.90
2019-03-04T02:48:47.744Z,50.00
2019-03-04T02:51:19.070Z,50.00
2019-03-04T02:53:51.338Z,50.00
2019-03-04T02:56:22.669Z,50.00
2019-03-04T02:58:54.009Z,50.00
2019-03-04T03:01:25.278Z,50.10
2019-03-04T03:03:56.648Z,50.10
2019-03-04T03:06:27.906Z,50.10
2019-03-04T03:08:59.276Z,50.10
2019-03-04T03:11:30.626Z,50.10
2019-03-04T03:14:01.925Z,50.30
2019-03-04T03:16:33.255Z,50.20
2019-03-04T03:19:04.630Z,50.30
2019-03-04T03:21:35.839Z,50.20
2019-03-04T03:24:08.008Z,50.30
2019-03-04T03:26:39.365Z,50.40
2019-03-04T03:29:10.738Z,50.40
2019-03-04T03:31:41.922Z,50.40
2019-03-04T03:34:13.353Z,50.40
2019-03-04T03:36:44.881Z,50.30
2019-03-04T03:39:16.168Z,50.30
2019-03-04T03:41:47.358Z,50.80
2019-03-04T03:44:18.679Z,50.30
2019-03-04T03:46:50.024Z,50.30
2019-03-04T03:49:21.377Z,50.30
2019-03-04T03:51:52.727Z,50.30
2019-03-04T03:54:24.078Z,50.30
2019-03-04T03:56:55.490Z,50.20
2019-03-04T03:59:26.870Z,50.20
2019-03-04T04:01:58.219Z,50.10
2019-03-04T04:04:29.639Z,50.00
2019-03-04T04:07:00.889Z,49.90
2019-03-04T04:09:32.220Z,50.00
2019-03-04T04:12:03.606Z,50.10
2019-03-04T04:14:34.946Z,50.00
2019-03-04T04:17:07.265Z,50.00
2019-03-04T04:19:38.606Z,50.10
2019-03-04T04:22:09.944Z,50.10
2019-03-04T04:24:42.585Z,50.00
2019-03-04T04:27:14.015Z,50.10
2019-03-04T04:29:45.394Z,50.10
2019-03-04T04:32:16.585Z,50.10
2019-03-04T04:34:48.017Z,50.10
2019-03-04T04:37:19.277Z,49.90
2019-03-04T04:39:50.569Z,49.90
2019-03-04T04:42:21.921Z,49.90
2019-03-04T04:44:53.228Z,50.10
2019-03-04T04:47:24.612Z,50.30
2019-03-04T04:49:56.000Z,50.40
2019-03-04T04:52:27.257Z,49.90
2019-03-04T04:54:58.612Z,50.00
2019-03-04T04:57:29.885Z,49.80
2019-03-04T05:00:01.116Z,50.00
2019-03-04T05:02:33.700Z,49.80
2019-03-04T05:05:05.310Z,49.80
2019-03-04T05:07:36.715Z,49.80
2019-03-04T05:10:11.375Z,49.70
2019-03-04T05:12:42.729Z,49.70
2019-03-04T05:15:14.201Z,49.60
2019-03-04T05:17:45.583Z,49.40
2019-03-04T05:20:18.974Z,49.40
2019-03-04T05:22:50.325Z,49.50
2019-03-04T05:25:21.756Z,49.40
2019-03-04T05:27:53.087Z,49.20
2019-03-04T05:30:24.500Z,49.20
2019-03-04T05:32:55.759Z,49.20
2019-03-04T05:35:27.256Z,49.20
2019-03-04T05:37:58.602Z,49.00
2019-03-04T05:40:29.957Z,49.10
2019-03-04T05:43:11.454Z,49.10
2019-03-04T05:45:42.844Z,49.20
2019-03-04T05:48:14.230Z,49.10
2019-03-04T05:50:45.658Z,49.10
2019-03-04T05:53:17.008Z,49.10
2019-03-04T05:55:48.413Z,49.00
2019-03-04T05:58:19.740Z,48.50
2019-03-04T06:01:30.689Z,48.50
2019-03-04T06:04:13.565Z,48.30
2019-03-04T06:06:54.389Z,48.20
2019-03-04T06:09:25.580Z,48.30
2019-03-04T06:11:56.900Z,48.20
2019-03-04T06:14:40.411Z,48.40
2019-03-04T06:17:11.674Z,48.40
2019-03-04T06:19:44.048Z,48.50
2019-03-04T06:22:16.546Z,48.60
2019-03-04T06:25:00.051Z,48.80
2019-03-04T06:27:32.272Z,48.80
2019-03-04T06:30:04.036Z,48.80
2019-03-04T06:32:35.373Z,49.00
2019-03-04T06:35:07.805Z,49.10
2019-03-04T06:37:40.460Z,49.10
2019-03-04T06:40:12.691Z,49.10
2019-03-04T06:42:44.118Z,49.10
2019-03-04T06:45:15.648Z,49.20
2019-03-04T06:47:47.233Z,49.20
2019-03-04T06:50:47.398Z,49.30
2019-03-04T06:53:28.664Z,49.20
2019-03-04T06:56:07.345Z,49.30
2019-03-04T06:58:42.601Z,49.20
2019-03-04T07:01:21.512Z,49.20
2019-03-04T07:03:58.858Z,49.20
2019-03-04T07:06:30.113Z,49.20
2019-03-04T07:09:07.220Z,49.30
2019-03-04T07:11:42.781Z,49.40
2019-03-04T07:14:15.104Z,49.40
2019-03-04T07:17:05.579Z,49.40
2019-03-04T07:19:38.526Z,49.40
2019-03-04T07:22:11.139Z,49.60
2019-03-04T07:24:42.491Z,49.50
2019-03-04T07:27:14.107Z,49.60
2019-03-04T07:29:45.485Z,49.70
2019-03-04T07:32:17.698Z,49.70
2019-03-04T07:34:49.025Z,49.60
2019-03-04T07:37:20.446Z,49.80
2019-03-04T07:39:51.841Z,49.70
2019-03-04T07:42:23.244Z,49.80
2019-03-04T07:44:54.690Z,49.80
2019-03-04T07:47:26.118Z,49.30
2019-03-04T07:49:57.716Z,48.70
2019-03-04T07:52:29.029Z,48.40
2019-03-04T07:55:00.383Z,48.50
2019-03-04T07:57:31.689Z,48.70
2019-03-04T08:00:03.008Z,48.70
2019-03-04T08:02:45.389Z,48.60
2019-03-04T08:05:16.821Z,48.70
2019-03-04T08:07:51.937Z,48.70
2019-03-04T08:11:07.386Z,48.70
2019-03-04T08:13:45.213Z,48.90
2019-03-04T08:16:28.431Z,49.00
2019-03-04T08:19:00.590Z,48.90
2019-03-04T08:21:31.990Z,49.00
2019-03-04T08:24:03.393Z,49.00
2019-03-04T08:26:34.701Z,48.90
2019-03-04T08:29:07.463Z,48.70
2019-03-04T08:31:38.852Z,48.50
2019-03-04T08:34:10.165Z,48.10
2019-03-04T08:36:41.636Z,48.00
2019-03-04T08:39:13.541Z,47.90
2019-03-04T08:41:45.055Z,47.80
2019-03-04T08:44:17.292Z,47.60
2019-03-04T08:46:48.744Z,47.30
2019-03-04T08:49:20.141Z,47.10
2019-03-04T08:51:51.380Z,46.60
2019-03-04T08:54:22.712Z,46.40
2019-03-04T08:57:03.268Z,45.80
2019-03-04T08:59:27.065Z,45.80
2019-03-04T09:01:58.272Z,45.30
2019-03-04T09:04:29.542Z,45.20
2019-03-04T09:07:00.752Z,45.30
2019-03-04T09:09:32.058Z,45.50
2019-03-04T09:12:03.409Z,45.50
2019-03-04T09:14:34.693Z,45.20
2019-03-04T09:17:06.797Z,44.60
2019-03-04T09:19:38.048Z,44.00
2019-03-04T09:22:09.411Z,44.00
2019-03-04T09:24:40.705Z,43.80
2019-03-04T09:27:12.077Z,43.30
2019-03-04T09:29:55.803Z,43.20
2019-03-04T09:32:27.214Z,43.10
2019-03-04T09:34:58.662Z,42.90
2019-03-04T09:37:30.046Z,42.70
2019-03-04T09:40:01.386Z,42.60
2019-03-04T09:42:32.820Z,42.60
2019-03-04T09:45:04.170Z,42.60
2019-03-04T09:47:35.641Z,42.80
2019-03-04T09:50:09.002Z,42.40
2019-03-04T09:52:40.418Z,42.50
2019-03-04T09:55:12.401Z,42.70
2019-03-04T09:57:44.918Z,43.00
2019-03-04T10:01:06.792Z,42.80
2019-03-04T10:04:29.382Z,43.00
2019-03-04T10:07:46.584Z,43.20
2019-03-04T10:10:39.666Z,43.90
2019-03-04T10:13:55.221Z,44.00
2019-03-04T10:16:53.795Z,44.20
2019-03-04T10:20:07.922Z,44.30
2019-03-04T10:23:26.441Z,44.20
2019-03-04T10:26:40.510Z,43.90
2019-03-04T10:29:45.367Z,43.50
2019-03-04T10:32:55.346Z,43.60
2019-03-04T10:35:48.370Z,43.30
2019-03-04T10:38:39.228Z,43.10
2019-03-04T10:41:41.301Z,43.00
2019-03-04T10:45:12.000Z,42.90
2019-03-04T10:47:43.454Z,42.70
2019-03-04T10:50:15.830Z,42.90
2019-03-04T10:52:47.401Z,42.20
2019-03-04T10:55:19.772Z,42.20
2019-03-04T10:57:51.264Z,42.90
2019-03-04T11:00:22.793Z,42.50
2019-03-04T11:02:55.184Z,42.00
2019-03-04T11:05:37.919Z,42.30
2019-03-04T11:08:09.337Z,42.30
2019-03-04T11:10:40.738Z,42.10
2019-03-04T11:13:12.100Z,42.00
2019-03-04T11:15:43.661Z,42.30
2019-03-04T11:18:15.643Z,42.40
2019-03-04T11:20:46.995Z,42.50
2019-03-04T11:23:18.812Z,42.60
2019-03-04T11:25:50.320Z,42.10
2019-03-04T11:28:21.756Z,41.80
2019-03-04T11:30:53.117Z,41.90
2019-03-04T11:33:24.489Z,41.20
2019-03-04T11:35:55.912Z,41.00
2019-03-04T11:38:38.695Z,40.90
2019-03-04T11:41:13.261Z,39.90
2019-03-04T11:43:44.687Z,40.10
2019-03-04T11:46:16.801Z,39.50
2019-03-04T11:48:48.213Z,39.70
2019-03-04T11:51:19.615Z,39.50
2019-03-04T11:53:51.025Z,40.00
2019-03-04T11:56:22.417Z,39.70
2019-03-04T11:58:53.787Z,39.90
2019-03-04T12:01:35.313Z,39.50
2019-03-04T12:04:07.764Z,39.40
2019-03-04T12:06:39.171Z,39.10
2019-03-04T12:09:15.481Z,38.80
2019-03-04T12:11:46.823Z,38.70
2019-03-04T12:14:18.288Z,38.90
2019-03-04T12:19:23.338Z,38.70
2019-03-04T12:21:54.782Z,38.90
2019-03-04T12:24:27.303Z,39.40
2019-03-04T12:26:59.392Z,39.30
2019-03-04T12:29:30.924Z,39.30
2019-03-04T12:32:06.220Z,39.30
2019-03-04T12:34:37.734Z,39.10
2019-03-04T12:37:09.201Z,39.00
2019-03-04T12:39:40.776Z,38.30
2019-03-04T12:42:13.240Z,38.00
2019-03-04T12:44:44.816Z,38.00
2019-03-04T12:47:17.229Z,37.80
2019-03-04T12:49:48.824Z,38.00
2019-03-04T12:52:23.229Z,37.80
2019-03-04T12:54:55.105Z,37.30
2019-03-04T12:57:26.936Z,37.40
2019-03-04T12:59:59.981Z,37.10
2019-03-04T13:02:31.389Z,36.70
2019-03-04T13:05:02.987Z,37.10
2019-03-04T13:07:35.632Z,37.20
2019-03-04T13:10:07.450Z,36.90
2019-03-04T13:12:39.106Z,37.10
2019-03-04T13:15:23.646Z,37.10
2019-03-04T13:17:56.051Z,37.30
2019-03-04T13:20:27.648Z,37.30
2019-03-04T13:22:59.182Z,37.20
2019-03-04T13:25:30.952Z,37.50
2019-03-04T13:28:08.281Z,37.50
2019-03-04T13:30:37.450Z,37.60
2019-03-04T13:33:08.954Z,37.70
2019-03-04T13:35:40.619Z,38.00
2019-03-04T13:38:12.188Z,37.60
2019-03-04T13:40:43.697Z,37.30
2019-03-04T13:43:21.792Z,37.30
2019-03-04T13:45:55.756Z,37.60
2019-03-04T13:48:27.352Z,37.50
2019-03-04T13:50:58.833Z,37.60
2019-03-04T13:53:30.638Z,37.70
2019-03-04T13:56:02.237Z,37.60
2019-03-04T13:58:33.698Z,37.70
2019-03-04T14:01:07.276Z,37.90
2019-03-04T14:03:38.788Z,37.50
2019-03-04T14:06:10.352Z,37.70
2019-03-04T14:08:41.871Z,37.40
2019-03-04T14:11:13.358Z,37.50
2019-03-04T14:13:44.894Z,37.70
2019-03-04T14:16:19.790Z,37.90
2019-03-04T14:19:03.195Z,38.00
2019-03-04T14:21:34.713Z,38.10
2019-03-04T14:24:06.178Z,38.40
2019-03-04T14:26:37.673Z,38.70
2019-03-04T14:29:09.145Z,38.80
2019-03-04T14:31:40.790Z,38.60
2019-03-04T14:34:12.160Z,38.80
2019-03-04T14:36:44.396Z,38.70
2019-03-04T14:39:16.380Z,38.30
2019-03-04T14:41:55.944Z,38.20
2019-03-04T14:44:27.313Z,38.50
2019-03-04T14:46:58.760Z,38.50
2019-03-04T14:49:30.257Z,38.60
2019-03-04T14:52:01.785Z,38.60
2019-03-04T14:54:33.161Z,38.40
2019-03-04T14:57:04.593Z,38.70
2019-03-04T14:59:36.932Z,38.70
2019-03-04T15:02:08.426Z,38.90
2019-03-04T15:04:40.041Z,39.10
2019-03-04T15:07:11.621Z,39.20
2019-03-04T15:09:49.348Z,39.50
2019-03-04T15:12:16.454Z,39.70
2019-03-04T15:14:47.973Z,39.70
2019-03-04T15:17:30.029Z,40.00
2019-03-04T15:20:08.981Z,39.80
2019-03-04T15:22:35.611Z,39.70
2019-03-04T15:25:09.108Z,39.60
2019-03-04T15:27:40.560Z,39.90
2019-03-04T15:30:12.435Z,40.10
2019-03-04T15:32:43.824Z,41.00
2019-03-04T15:35:15.194Z,42.10
2019-03-04T15:37:46.673Z,43.40
2019-03-04T15:40:18.170Z,43.70
2019-03-04T15:42:49.548Z,43.90
2019-03-04T15:45:20.918Z,45.00
2019-03-04T15:47:52.449Z,45.30
2019-03-04T15:50:23.941Z,46.10
2019-03-04T15:52:55.314Z,46.30
2019-03-04T15:55:26.688Z,47.10
2019-03-04T15:58:01.213Z,46.90
2019-03-04T16:00:32.709Z,47.10
2019-03-04T16:03:06.042Z,47.20
2019-03-04T16:05:39.092Z,47.20
2019-03-04T16:08:10.562Z,47.60
2019-03-04T16:10:41.997Z,47.60
2019-03-04T16:13:13.505Z,47.70
2019-03-04T16:15:45.275Z,48.90
2019-03-04T16:18:16.736Z,48.50
2019-03-04T16:20:48.128Z,49.30
2019-03-04T16:23:19.561Z,49.30
2019-03-04T16:25:51.053Z,49.50
2019-03-04T16:28:25.208Z,49.40
2019-03-04T16:30:56.633Z,49.50
2019-03-04T16:33:28.069Z,49.50
2019-03-04T16:35:59.414Z,49.70
2019-03-04T16:38:30.880Z,49.80
2019-03-04T16:41:02.418Z,49.80
2019-03-04T16:43:33.953Z,49.90
2019-03-04T16:46:05.570Z,50.30
2019-03-04T16:48:37.558Z,50.20
2019-03-04T16:51:09.994Z,50.20
2019-03-04T16:53:41.593Z,50.10
2019-03-04T16:56:12.976Z,49.90
2019-03-04T16:58:44.404Z,50.20
2019-03-04T17:01:16.203Z,50.20
2019-03-04T17:03:47.775Z,50.30
2019-03-04T17:06:19.268Z,50.30
2019-03-04T17:08:50.753Z,50.40
2019-03-04T17:11:22.161Z,50.80
2019-03-04T17:13:53.692Z,50.90
2019-03-04T17:16:25.552Z,50.90
2019-03-04T17:18:57.306Z,51.10
2019-03-04T17:21:28.798Z,51.30
2019-03-04T17:24:00.470Z,51.50
2019-03-04T17:26:33.398Z,51.70
2019-03-04T17:29:04.913Z,51.90
2019-03-04T17:31:38.494Z,52.10
2019-03-04T17:34:10.181Z,52.20
2019-03-04T17:36:41.473Z,52.30
2019-03-04T17:39:13.233Z,52.50
2019-03-04T17:41:44.951Z,52.80
2019-03-04T17:44:22.850Z,52.90
2019-03-04T17:46:54.224Z,52.80
2019-03-04T17:49:25.869Z,53.10
2019-03-04T17:51:57.500Z,53.20
2019-03-04T17:54:29.063Z,53.30
2019-03-04T17:57:00.784Z,53.40
2019-03-04T17:59:33.417Z,53.60
2019-03-04T18:02:04.962Z,53.40
2019-03-04T18:04:36.415Z,53.40
2019-03-04T18:07:07.860Z,53.80
2019-03-04T18:09:40.385Z,53.70
2019-03-04T18:12:11.800Z,53.80
2019-03-04T18:14:43.202Z,53.80
2019-03-04T18:17:14.627Z,53.80
2019-03-04T18:19:46.096Z,53.80
2019-03-04T18:22:17.372Z,54.20
2019-03-04T18:24:48.825Z,54.30
2019-03-04T18:27:33.740Z,54.30
2019-03-04T18:30:30.546Z,55.60
2019-03-04T18:33:58.366Z,54.60
2019-03-04T18:36:52.589Z,53.90
2019-03-04T18:40:06.781Z,53.50
2019-03-04T18:43:03.277Z,53.40
2019-03-04T18:46:13.962Z,53.30
2019-03-04T18:48:54.185Z,53.20
2019-03-04T18:51:26.224Z,53.20
2019-03-04T18:54:01.129Z,53.10
2019-03-04T18:56:33.620Z,53.50
2019-03-04T18:59:05.200Z,53.30
2019-03-04T19:01:36.538Z,53.50
2019-03-04T19:04:09.101Z,53.50
2019-03-04T19:06:40.566Z,53.40
2019-03-04T19:09:13.401Z,53.50
2019-03-04T19:11:45.338Z,53.60
2019-03-04T19:14:17.197Z,53.40
2019-03-04T19:16:49.269Z,53.50
2019-03-04T19:19:20.751Z,53.60
2019-03-04T19:21:53.217Z,53.80
2019-03-04T19:24:24.933Z,53.80
2019-03-04T19:26:56.268Z,53.80
2019-03-04T19:29:27.685Z,53.80
2019-03-04T19:31:59.069Z,54.10
2019-03-04T19:34:30.505Z,54.20
2019-03-04T19:37:01.804Z,54.30
2019-03-04T19:39:34.215Z,54.30
2019-03-04T19:42:05.720Z,54.20
2019-03-04T19:44:37.256Z,54.20
2019-03-04T19:47:09.556Z,54.30
2019-03-04T19:49:41.008Z,54.20
2019-03-04T19:52:12.460Z,54.00
2019-03-04T19:54:43.953Z,54.00
2019-03-04T19:57:15.393Z,54.20
2019-03-04T19:59:46.975Z,54.00
2019-03-04T20:02:18.504Z,53.90
2019-03-04T20:04:51.045Z,53.90
2019-03-04T20:07:22.766Z,54.00
2019-03-04T20:09:55.424Z,53.90
2019-03-04T20:12:28.055Z,54.00
2019-03-04T20:14:59.556Z,53.90
2019-03-04T20:17:30.995Z,54.00
2019-03-04T20:20:02.404Z,53.80
2019-03-04T20:22:33.849Z,53.80
2019-03-04T20:25:07.101Z,53.70
2019-03-04T20:27:38.596Z,53.20
2019-03-04T20:30:10.785Z,53.20
2019-03-04T20:32:42.507Z,53.20
2019-03-04T20:35:14.832Z,53.20
2019-03-04T20:37:48.545Z,54.00
2019-03-04T20:40:20.078Z,53.40
2019-03-04T20:42:51.425Z,53.40
2019-03-04T20:45:23.910Z,53.00
2019-03-04T20:47:55.413Z,52.90
2019-03-04T20:50:26.852Z,53.00
2019-03-04T20:52:58.246Z,53.00
2019-03-04T20:55:29.642Z,53.00
2019-03-04T20:58:01.055Z,53.10
2019-03-04T21:00:34.218Z,53.10
2019-03-04T21:03:05.611Z,53.00
2019-03-04T21:05:38.357Z,53.00
2019-03-04T21:08:09.747Z,53.40
2019-03-04T21:10:41.250Z,52.90
2019-03-04T21:13:15.828Z,53.10
2019-03-04T21:15:47.332Z,53.00
2019-03-04T21:18:18.869Z,53.10
2019-03-04T21:20:50.516Z,53.10
2019-03-04T21:23:22.152Z,53.30
2019-03-04T21:26:02.829Z,52.80
2019-03-04T21:28:57.161Z,53.00
2019-03-04T21:31:42.101Z,52.70
2019-03-04T21:34:46.620Z,52.60
2019-03-04T21:37:25.313Z,52.60
2019-03-04T21:39:58.180Z,52.50
2019-03-04T21:42:43.030Z,52.70
2019-03-04T21:45:42.136Z,52.50
2019-03-04T21:48:20.106Z,52.40
2019-03-04T21:51:01.890Z,52.50
2019-03-04T21:53:40.532Z,52.50
2019-03-04T21:56:39.469Z,52.40
2019-03-04T21:59:10.940Z,52.30
2019-03-04T22:01:47.574Z,52.30
2019-03-04T22:04:19.080Z,52.30
2019-03-04T22:06:50.515Z,52.60
2019-03-04T22:09:23.317Z,52.40
2019-03-04T22:11:54.681Z,52.30
2019-03-04T22:14:26.071Z,52.30
2019-03-04T22:16:57.446Z,52.20
2019-03-04T22:19:28.827Z,52.40
2019-03-04T22:22:00.155Z,52.40
2019-03-04T22:24:31.639Z,52.30
2019-03-04T22:27:03.068Z,52.30
2019-03-04T22:29:34.446Z,52.40
2019-03-04T22:32:05.856Z,52.40
2019-03-04T22:34:37.210Z,52.50
2019-03-04T22:37:08.588Z,52.50
2019-03-04T22:39:40.199Z,52.60
2019-03-04T22:42:11.553Z,52.70
2019-03-04T22:44:42.967Z,52.70
2019-03-04T22:47:14.289Z,52.80
2019-03-04T22:49:47.442Z,52.80
2019-03-04T22:52:18.775Z,52.80
2019-03-04T22:54:50.045Z,52.80
2019-03-04T22:57:21.468Z,53.00
2019-03-04T22:59:52.952Z,53.00
2019-03-04T23:02:26.282Z,53.00
2019-03-04T23:05:13.649Z,53.10
2019-03-04T23:07:47.688Z,53.20
2019-03-04T23:10:42.288Z,53.20
2019-03-04T23:14:00.661Z,53.40
2019-03-04T23:16:32.801Z,53.40
2019-03-04T23:19:04.181Z,53.40
2019-03-04T23:21:35.609Z,53.60
2019-03-04T23:24:07.016Z,53.60
2019-03-04T23:26:38.537Z,53.70
2019-03-04T23:29:09.888Z,53.80
2019-03-04T23:31:41.228Z,53.90
2019-03-04T23:34:12.589Z,53.90
2019-03-04T23:36:43.956Z,54.00
2019-03-04T23:39:15.286Z,54.00
2019-03-04T23:41:46.708Z,53.90
2019-03-04T23:44:18.113Z,53.90
2019-03-04T23:46:49.403Z,54.10
2019-03-04T23:49:20.865Z,54.10
2019-03-04T23:51:53.237Z,54.20
2019-03-04T23:54:24.586Z,54.20
2019-03-04T23:56:55.877Z,54.20
2019-03-04T23:59:27.145Z,54.30
